Allendorf, Iowa
Current Conditions -  °F | °C
As of 1:35 AM on Saturday 29 Nov 2014 (Local Time) from KSHL Reporting Station
Haze Haze  
Wind Chill: 14°   Ceiling: Unl
Heat Index: 21°   Visibility: 6mi
Dew Point: 21°   Wind: 6mph
Humidity: 100%   Direction: 110°ESE
Pressure: 29.53"   Gusts: NA
Location:  43.41°N, 95.64°W
Report Text: KSHL 290735Z AUTO 11005KT 6SM BR CLR M06/M06 A2953 RMK AO2
Loading
Personal Weather Stations






























Interactive Weather Map New forecast layout! Learn more

10-Day Weather Forecast

Advertisements
Track Severe Weather on mobile